sensor_id;sensor_type;location;lat;lon;timestamp;pressure;altitude;pressure_sealevel;temperature;humidity
50310;BME280;36207;51.850;21.698;2024-02-23T00:00:50;98030.02;;;7.25;79.00
50310;BME280;36207;51.850;21.698;2024-02-23T00:03:35;98033.70;;;7.26;79.06
50310;BME280;36207;51.850;21.698;2024-02-23T00:06:03;98035.98;;;7.27;79.09
50310;BME280;36207;51.850;21.698;2024-02-23T00:08:29;98030.70;;;7.29;79.23
50310;BME280;36207;51.850;21.698;2024-02-23T00:10:55;98031.80;;;7.30;79.27
50310;BME280;36207;51.850;21.698;2024-02-23T00:13:21;98027.63;;;7.30;79.19
50310;BME280;36207;51.850;21.698;2024-02-23T00:15:47;98023.09;;;7.29;79.35
50310;BME280;36207;51.850;21.698;2024-02-23T00:18:13;98022.13;;;7.29;79.64
50310;BME280;36207;51.850;21.698;2024-02-23T00:20:40;98023.05;;;7.30;79.49
50310;BME280;36207;51.850;21.698;2024-02-23T00:23:06;98020.93;;;7.30;79.65
50310;BME280;36207;51.850;21.698;2024-02-23T00:25:32;98017.09;;;7.31;79.58
50310;BME280;36207;51.850;21.698;2024-02-23T00:27:57;98015.63;;;7.31;79.67
50310;BME280;36207;51.850;21.698;2024-02-23T00:30:23;98013.55;;;7.30;79.90
50310;BME280;36207;51.850;21.698;2024-02-23T00:32:49;98010.97;;;7.32;79.75
50310;BME280;36207;51.850;21.698;2024-02-23T00:35:15;98004.67;;;7.32;80.23
50310;BME280;36207;51.850;21.698;2024-02-23T00:37:41;98001.00;;;7.31;80.22
50310;BME280;36207;51.850;21.698;2024-02-23T00:40:08;98005.48;;;7.32;80.02
50310;BME280;36207;51.850;21.698;2024-02-23T00:42:35;98001.73;;;7.34;79.94
50310;BME280;36207;51.850;21.698;2024-02-23T00:45:01;98000.31;;;7.35;80.22
50310;BME280;36207;51.850;21.698;2024-02-23T00:47:28;98003.52;;;7.38;80.04
50310;BME280;36207;51.850;21.698;2024-02-23T00:49:54;98009.69;;;7.39;80.22
50310;BME280;36207;51.850;21.698;2024-02-23T00:52:20;98005.65;;;7.41;80.16
50310;BME280;36207;51.850;21.698;2024-02-23T00:54:45;97998.09;;;7.41;80.33
50310;BME280;36207;51.850;21.698;2024-02-23T00:57:12;97997.84;;;7.42;80.35
50310;BME280;36207;51.850;21.698;2024-02-23T00:59:38;97995.18;;;7.42;80.52
50310;BME280;36207;51.850;21.698;2024-02-23T01:02:04;97988.24;;;7.41;80.73
50310;BME280;36207;51.850;21.698;2024-02-23T01:04:30;97994.25;;;7.41;80.84
50310;BME280;36207;51.850;21.698;2024-02-23T01:06:58;97992.86;;;7.38;81.58
50310;BME280;36207;51.850;21.698;2024-02-23T01:09:24;97990.14;;;7.36;81.92
50310;BME280;36207;51.850;21.698;2024-02-23T01:11:50;97991.48;;;7.34;82.37
50310;BME280;36207;51.850;21.698;2024-02-23T01:14:16;97987.27;;;7.34;82.15
50310;BME280;36207;51.850;21.698;2024-02-23T01:16:42;97987.36;;;7.34;81.94
50310;BME280;36207;51.850;21.698;2024-02-23T01:19:10;97983.96;;;7.33;82.43
50310;BME280;36207;51.850;21.698;2024-02-23T01:21:36;97987.11;;;7.33;82.09
50310;BME280;36207;51.850;21.698;2024-02-23T01:24:02;97984.05;;;7.33;82.63
50310;BME280;36207;51.850;21.698;2024-02-23T01:26:30;97979.50;;;7.32;82.68
50310;BME280;36207;51.850;21.698;2024-02-23T01:28:55;97978.58;;;7.31;82.76
50310;BME280;36207;51.850;21.698;2024-02-23T01:31:22;97977.42;;;7.32;82.94
50310;BME280;36207;51.850;21.698;2024-02-23T01:33:48;97974.24;;;7.32;83.01
50310;BME280;36207;51.850;21.698;2024-02-23T01:36:16;97973.60;;;7.33;82.69
50310;BME280;36207;51.850;21.698;2024-02-23T01:38:42;97973.02;;;7.34;82.64
50310;BME280;36207;51.850;21.698;2024-02-23T01:41:08;97969.46;;;7.36;82.73
50310;BME280;36207;51.850;21.698;2024-02-23T01:43:34;97972.31;;;7.37;83.04
50310;BME280;36207;51.850;21.698;2024-02-23T01:46:00;97965.61;;;7.38;82.71
50310;BME280;36207;51.850;21.698;2024-02-23T01:48:26;97963.97;;;7.41;82.70
50310;BME280;36207;51.850;21.698;2024-02-23T01:50:53;97961.66;;;7.44;82.58
50310;BME280;36207;51.850;21.698;2024-02-23T01:53:20;97961.13;;;7.44;82.89
50310;BME280;36207;51.850;21.698;2024-02-23T01:55:47;97957.02;;;7.44;82.86
50310;BME280;36207;51.850;21.698;2024-02-23T01:58:14;97958.48;;;7.47;82.71
50310;BME280;36207;51.850;21.698;2024-02-23T02:00:40;97959.55;;;7.48;82.56
50310;BME280;36207;51.850;21.698;2024-02-23T02:03:06;97960.30;;;7.48;82.51
50310;BME280;36207;51.850;21.698;2024-02-23T02:05:35;97958.98;;;7.49;82.64
50310;BME280;36207;51.850;21.698;2024-02-23T02:08:02;97958.39;;;7.50;82.79
50310;BME280;36207;51.850;21.698;2024-02-23T02:10:28;97954.21;;;7.52;82.75
50310;BME280;36207;51.850;21.698;2024-02-23T02:12:54;97951.30;;;7.52;82.67
50310;BME280;36207;51.850;21.698;2024-02-23T02:15:20;97950.70;;;7.53;82.73
50310;BME280;36207;51.850;21.698;2024-02-23T02:17:48;97947.70;;;7.54;82.89
50310;BME280;36207;51.850;21.698;2024-02-23T02:20:14;97947.21;;;7.55;82.61
50310;BME280;36207;51.850;21.698;2024-02-23T02:22:40;97947.45;;;7.57;82.68
50310;BME280;36207;51.850;21.698;2024-02-23T02:25:06;97943.48;;;7.57;82.65
50310;BME280;36207;51.850;21.698;2024-02-23T02:27:33;97941.48;;;7.58;82.50
50310;BME280;36207;51.850;21.698;2024-02-23T02:29:59;97943.67;;;7.58;82.79
50310;BME280;36207;51.850;21.698;2024-02-23T02:32:25;97941.59;;;7.59;82.83
50310;BME280;36207;51.850;21.698;2024-02-23T02:34:51;97937.11;;;7.60;82.92
50310;BME280;36207;51.850;21.698;2024-02-23T02:37:17;97938.52;;;7.60;82.92
50310;BME280;36207;51.850;21.698;2024-02-23T02:39:42;97952.17;;;7.61;82.97
50310;BME280;36207;51.850;21.698;2024-02-23T02:42:08;97947.27;;;7.62;82.84
50310;BME280;36207;51.850;21.698;2024-02-23T02:44:34;97938.36;;;7.63;82.87
50310;BME280;36207;51.850;21.698;2024-02-23T02:47:00;97935.98;;;7.63;82.87
50310;BME280;36207;51.850;21.698;2024-02-23T02:49:27;97943.71;;;7.64;82.82
50310;BME280;36207;51.850;21.698;2024-02-23T02:51:52;97942.92;;;7.64;82.97
50310;BME280;36207;51.850;21.698;2024-02-23T02:54:18;97939.56;;;7.66;82.83
50310;BME280;36207;51.850;21.698;2024-02-23T02:56:47;97942.30;;;7.66;82.76
50310;BME280;36207;51.850;21.698;2024-02-23T02:59:13;97948.43;;;7.68;82.76
50310;BME280;36207;51.850;21.698;2024-02-23T03:01:39;97947.04;;;7.69;82.74
50310;BME280;36207;51.850;21.698;2024-02-23T03:04:05;97946.28;;;7.70;82.64
50310;BME280;36207;51.850;21.698;2024-02-23T03:06:31;97945.18;;;7.72;82.75
50310;BME280;36207;51.850;21.698;2024-02-23T03:08:57;97946.98;;;7.73;82.68
50310;BME280;36207;51.850;21.698;2024-02-23T03:11:23;97950.73;;;7.74;82.49
50310;BME280;36207;51.850;21.698;2024-02-23T03:13:49;97953.66;;;7.76;82.54
50310;BME280;36207;51.850;21.698;2024-02-23T03:16:16;97956.84;;;7.77;82.44
50310;BME280;36207;51.850;21.698;2024-02-23T03:18:43;97953.73;;;7.79;82.40
50310;BME280;36207;51.850;21.698;2024-02-23T03:21:09;97958.67;;;7.81;82.36
50310;BME280;36207;51.850;21.698;2024-02-23T03:23:36;97964.76;;;7.83;82.31
50310;BME280;36207;51.850;21.698;2024-02-23T03:26:02;97966.30;;;7.85;82.23
50310;BME280;36207;51.850;21.698;2024-02-23T03:28:28;97960.60;;;7.85;82.21
50310;BME280;36207;51.850;21.698;2024-02-23T03:30:54;97960.27;;;7.85;82.37
50310;BME280;36207;51.850;21.698;2024-02-23T03:33:20;97956.73;;;7.86;82.33
50310;BME280;36207;51.850;21.698;2024-02-23T03:35:46;97958.61;;;7.85;82.44
50310;BME280;36207;51.850;21.698;2024-02-23T03:38:12;97954.98;;;7.86;82.32
50310;BME280;36207;51.850;21.698;2024-02-23T03:40:38;97958.75;;;7.86;82.34
50310;BME280;36207;51.850;21.698;2024-02-23T03:43:04;97962.00;;;7.87;82.42
50310;BME280;36207;51.850;21.698;2024-02-23T03:45:31;97962.31;;;7.88;82.61
50310;BME280;36207;51.850;21.698;2024-02-23T03:47:57;97968.13;;;7.87;82.86
50310;BME280;36207;51.850;21.698;2024-02-23T03:50:23;97968.83;;;7.84;83.23
50310;BME280;36207;51.850;21.698;2024-02-23T03:52:49;97971.74;;;7.84;83.11
50310;BME280;36207;51.850;21.698;2024-02-23T03:55:15;97979.06;;;7.83;83.45
50310;BME280;36207;51.850;21.698;2024-02-23T03:57:41;97977.59;;;7.82;83.60
50310;BME280;36207;51.850;21.698;2024-02-23T04:00:08;97979.89;;;7.80;84.04
50310;BME280;36207;51.850;21.698;2024-02-23T04:02:35;97980.67;;;7.77;84.52
50310;BME280;36207;51.850;21.698;2024-02-23T04:05:00;97977.70;;;7.74;84.41
50310;BME280;36207;51.850;21.698;2024-02-23T04:07:26;97981.17;;;7.72;84.82
50310;BME280;36207;51.850;21.698;2024-02-23T04:09:52;97983.73;;;7.70;84.93
50310;BME280;36207;51.850;21.698;2024-02-23T04:12:21;97984.02;;;7.69;84.44
50310;BME280;36207;51.850;21.698;2024-02-23T04:14:47;97986.98;;;7.67;85.02
50310;BME280;36207;51.850;21.698;2024-02-23T04:17:13;97994.83;;;7.64;86.34
50310;BME280;36207;51.850;21.698;2024-02-23T04:19:41;97996.52;;;7.61;86.53
50310;BME280;36207;51.850;21.698;2024-02-23T04:22:08;97997.46;;;7.56;87.12
50310;BME280;36207;51.850;21.698;2024-02-23T04:24:37;98001.15;;;7.54;87.10
50310;BME280;36207;51.850;21.698;2024-02-23T04:27:04;98007.77;;;7.52;87.36
50310;BME280;36207;51.850;21.698;2024-02-23T04:29:30;98007.16;;;7.49;87.96
50310;BME280;36207;51.850;21.698;2024-02-23T04:31:59;98006.16;;;7.47;87.60
50310;BME280;36207;51.850;21.698;2024-02-23T04:34:25;98009.17;;;7.46;87.66
50310;BME280;36207;51.850;21.698;2024-02-23T04:36:51;98010.86;;;7.45;87.64
50310;BME280;36207;51.850;21.698;2024-02-23T04:39:17;98007.35;;;7.44;88.74
50310;BME280;36207;51.850;21.698;2024-02-23T04:41:43;98008.55;;;7.42;88.47
50310;BME280;36207;51.850;21.698;2024-02-23T04:44:09;98008.50;;;7.39;89.38
50310;BME280;36207;51.850;21.698;2024-02-23T04:46:35;98005.33;;;7.36;90.54
50310;BME280;36207;51.850;21.698;2024-02-23T04:49:01;98007.00;;;7.34;89.98
50310;BME280;36207;51.850;21.698;2024-02-23T04:51:28;98007.10;;;7.31;91.23
50310;BME280;36207;51.850;21.698;2024-02-23T04:53:54;98003.16;;;7.29;90.43
50310;BME280;36207;51.850;21.698;2024-02-23T04:56:19;98009.76;;;7.26;91.94
50310;BME280;36207;51.850;21.698;2024-02-23T04:58:46;98006.81;;;7.23;92.19
50310;BME280;36207;51.850;21.698;2024-02-23T05:01:12;98012.00;;;7.21;91.96
50310;BME280;36207;51.850;21.698;2024-02-23T05:03:38;98018.87;;;7.22;92.03
50310;BME280;36207;51.850;21.698;2024-02-23T05:06:05;98024.21;;;7.21;91.35
50310;BME280;36207;51.850;21.698;2024-02-23T05:08:31;98026.59;;;7.22;91.83
50310;BME280;36207;51.850;21.698;2024-02-23T05:10:57;98026.46;;;7.22;92.35
50310;BME280;36207;51.850;21.698;2024-02-23T05:13:24;98026.91;;;7.21;92.17
50310;BME280;36207;51.850;21.698;2024-02-23T05:15:50;98030.39;;;7.20;92.78
50310;BME280;36207;51.850;21.698;2024-02-23T05:18:16;98035.53;;;7.19;92.99
50310;BME280;36207;51.850;21.698;2024-02-23T05:20:42;98034.10;;;7.17;93.32
50310;BME280;36207;51.850;21.698;2024-02-23T05:23:08;98035.29;;;7.15;94.25
50310;BME280;36207;51.850;21.698;2024-02-23T05:25:34;98042.94;;;7.12;94.78
50310;BME280;36207;51.850;21.698;2024-02-23T05:28:00;98044.15;;;7.12;93.89
50310;BME280;36207;51.850;21.698;2024-02-23T05:30:26;98047.71;;;7.12;94.30
50310;BME280;36207;51.850;21.698;2024-02-23T05:32:56;98051.46;;;7.12;94.11
50310;BME280;36207;51.850;21.698;2024-02-23T05:35:22;98050.73;;;7.11;94.47
50310;BME280;36207;51.850;21.698;2024-02-23T05:37:48;98051.30;;;7.10;94.69
50310;BME280;36207;51.850;21.698;2024-02-23T05:40:15;98061.27;;;7.11;94.00
50310;BME280;36207;51.850;21.698;2024-02-23T05:42:41;98060.05;;;7.11;93.85
50310;BME280;36207;51.850;21.698;2024-02-23T05:45:08;98068.05;;;7.10;94.45
50310;BME280;36207;51.850;21.698;2024-02-23T05:47:38;98072.70;;;7.09;94.96
50310;BME280;36207;51.850;21.698;2024-02-23T05:50:05;98074.86;;;7.06;95.96
50310;BME280;36207;51.850;21.698;2024-02-23T05:52:32;98074.41;;;7.06;96.00
50310;BME280;36207;51.850;21.698;2024-02-23T05:54:58;98078.90;;;7.05;96.44
50310;BME280;36207;51.850;21.698;2024-02-23T05:57:26;98077.43;;;7.04;96.63
50310;BME280;36207;51.850;21.698;2024-02-23T05:59:53;98077.23;;;7.03;96.62
50310;BME280;36207;51.850;21.698;2024-02-23T06:02:19;98084.55;;;7.03;96.80
50310;BME280;36207;51.850;21.698;2024-02-23T06:04:45;98086.05;;;7.03;96.83
50310;BME280;36207;51.850;21.698;2024-02-23T06:07:11;98095.48;;;7.03;97.41
50310;BME280;36207;51.850;21.698;2024-02-23T06:09:37;98087.52;;;7.01;97.60
50310;BME280;36207;51.850;21.698;2024-02-23T06:12:04;98094.65;;;7.01;96.74
50310;BME280;36207;51.850;21.698;2024-02-23T06:14:31;98099.92;;;7.01;97.36
50310;BME280;36207;51.850;21.698;2024-02-23T06:16:57;98101.31;;;7.02;96.82
50310;BME280;36207;51.850;21.698;2024-02-23T06:19:23;98106.17;;;7.02;96.93
50310;BME280;36207;51.850;21.698;2024-02-23T06:21:49;98110.02;;;7.03;96.41
50310;BME280;36207;51.850;21.698;2024-02-23T06:24:16;98111.15;;;7.02;98.26
50310;BME280;36207;51.850;21.698;2024-02-23T06:26:42;98118.87;;;7.01;98.17
50310;BME280;36207;51.850;21.698;2024-02-23T06:29:09;98125.70;;;7.01;98.71
50310;BME280;36207;51.850;21.698;2024-02-23T06:31:39;98125.05;;;7.00;98.72
50310;BME280;36207;51.850;21.698;2024-02-23T06:34:05;98126.30;;;7.01;97.94
50310;BME280;36207;51.850;21.698;2024-02-23T06:36:31;98132.59;;;7.02;97.75
50310;BME280;36207;51.850;21.698;2024-02-23T06:38:57;98132.42;;;7.03;97.57
50310;BME280;36207;51.850;21.698;2024-02-23T06:41:23;98134.48;;;7.05;96.58
50310;BME280;36207;51.850;21.698;2024-02-23T06:43:49;98135.58;;;7.06;97.64
50310;BME280;36207;51.850;21.698;2024-02-23T06:46:19;98135.14;;;7.07;97.74
50310;BME280;36207;51.850;21.698;2024-02-23T06:48:48;98135.27;;;7.07;97.33
50310;BME280;36207;51.850;21.698;2024-02-23T06:51:14;98136.97;;;7.07;97.63
50310;BME280;36207;51.850;21.698;2024-02-23T06:53:42;98143.70;;;7.09;97.75
50310;BME280;36207;51.850;21.698;2024-02-23T06:56:07;98144.80;;;7.10;97.45
50310;BME280;36207;51.850;21.698;2024-02-23T06:58:34;98147.23;;;7.10;98.07
50310;BME280;36207;51.850;21.698;2024-02-23T07:01:01;98147.23;;;7.10;97.94
50310;BME280;36207;51.850;21.698;2024-02-23T07:03:29;98151.14;;;7.10;98.53
50310;BME280;36207;51.850;21.698;2024-02-23T07:05:55;98148.65;;;7.10;98.83
50310;BME280;36207;51.850;21.698;2024-02-23T07:08:21;98153.35;;;7.11;99.11
50310;BME280;36207;51.850;21.698;2024-02-23T07:10:47;98155.88;;;7.11;98.59
50310;BME280;36207;51.850;21.698;2024-02-23T07:13:13;98158.50;;;7.12;98.69
50310;BME280;36207;51.850;21.698;2024-02-23T07:15:39;98161.96;;;7.13;98.73
50310;BME280;36207;51.850;21.698;2024-02-23T07:18:05;98171.02;;;7.14;99.21
50310;BME280;36207;51.850;21.698;2024-02-23T07:20:35;98170.46;;;7.15;99.40
50310;BME280;36207;51.850;21.698;2024-02-23T07:23:01;98168.59;;;7.16;98.84
50310;BME280;36207;51.850;21.698;2024-02-23T07:25:27;98169.33;;;7.17;99.53
50310;BME280;36207;51.850;21.698;2024-02-23T07:27:53;98169.39;;;7.18;99.34
50310;BME280;36207;51.850;21.698;2024-02-23T07:30:19;98180.02;;;7.19;99.27
50310;BME280;36207;51.850;21.698;2024-02-23T07:32:45;98178.07;;;7.21;98.88
50310;BME280;36207;51.850;21.698;2024-02-23T07:35:14;98181.58;;;7.22;99.17
50310;BME280;36207;51.850;21.698;2024-02-23T07:37:40;98182.73;;;7.23;99.37
50310;BME280;36207;51.850;21.698;2024-02-23T07:40:07;98179.70;;;7.22;99.50
50310;BME280;36207;51.850;21.698;2024-02-23T07:42:33;98185.13;;;7.23;99.30
50310;BME280;36207;51.850;21.698;2024-02-23T07:45:06;98189.66;;;7.24;99.74
50310;BME280;36207;51.850;21.698;2024-02-23T07:47:32;98196.93;;;7.24;99.88
50310;BME280;36207;51.850;21.698;2024-02-23T07:49:58;98198.77;;;7.23;99.91
50310;BME280;36207;51.850;21.698;2024-02-23T07:52:24;98204.77;;;7.24;99.51
50310;BME280;36207;51.850;21.698;2024-02-23T07:54:52;98210.14;;;7.25;100.00
50310;BME280;36207;51.850;21.698;2024-02-23T07:57:19;98208.17;;;7.25;99.99
50310;BME280;36207;51.850;21.698;2024-02-23T07:59:45;98209.65;;;7.27;99.99
50310;BME280;36207;51.850;21.698;2024-02-23T08:02:11;98210.91;;;7.28;99.98
50310;BME280;36207;51.850;21.698;2024-02-23T08:04:37;98214.09;;;7.29;100.00
50310;BME280;36207;51.850;21.698;2024-02-23T08:07:04;98217.21;;;7.30;100.00
50310;BME280;36207;51.850;21.698;2024-02-23T08:09:30;98216.81;;;7.30;99.96
50310;BME280;36207;51.850;21.698;2024-02-23T08:11:56;98217.87;;;7.30;100.00
50310;BME280;36207;51.850;21.698;2024-02-23T08:14:22;98222.77;;;7.31;100.00
50310;BME280;36207;51.850;21.698;2024-02-23T08:16:48;98225.98;;;7.30;100.00
50310;BME280;36207;51.850;21.698;2024-02-23T08:19:15;98224.80;;;7.31;100.00
50310;BME280;36207;51.850;21.698;2024-02-23T08:21:42;98228.08;;;7.34;100.00
50310;BME280;36207;51.850;21.698;2024-02-23T08:24:09;98232.09;;;7.38;100.00
50310;BME280;36207;51.850;21.698;2024-02-23T08:26:35;98238.59;;;7.42;100.00
50310;BME280;36207;51.850;21.698;2024-02-23T08:29:04;98241.09;;;7.46;100.00
50310;BME280;36207;51.850;21.698;2024-02-23T08:31:30;98241.46;;;7.47;100.00
50310;BME280;36207;51.850;21.698;2024-02-23T08:33:56;98238.20;;;7.48;100.00
50310;BME280;36207;51.850;21.698;2024-02-23T08:36:22;98245.66;;;7.49;100.00
50310;BME280;36207;51.850;21.698;2024-02-23T08:38:48;98243.23;;;7.50;100.00
50310;BME280;36207;51.850;21.698;2024-02-23T08:41:14;98242.82;;;7.50;100.00
50310;BME280;36207;51.850;21.698;2024-02-23T08:43:40;98250.30;;;7.53;100.00
50310;BME280;36207;51.850;21.698;2024-02-23T08:46:06;98249.03;;;7.54;100.00
50310;BME280;36207;51.850;21.698;2024-02-23T08:48:32;98257.48;;;7.54;100.00
50310;BME280;36207;51.850;21.698;2024-02-23T08:50:58;98266.20;;;7.56;100.00
50310;BME280;36207;51.850;21.698;2024-02-23T08:53:24;98270.01;;;7.58;100.00
50310;BME280;36207;51.850;21.698;2024-02-23T08:55:50;98272.79;;;7.61;100.00
50310;BME280;36207;51.850;21.698;2024-02-23T08:58:16;98274.38;;;7.62;100.00
50310;BME280;36207;51.850;21.698;2024-02-23T09:00:42;98271.96;;;7.63;100.00
50310;BME280;36207;51.850;21.698;2024-02-23T09:03:08;98274.09;;;7.64;100.00
50310;BME280;36207;51.850;21.698;2024-02-23T09:05:33;98272.26;;;7.64;100.00
50310;BME280;36207;51.850;21.698;2024-02-23T09:08:00;98274.38;;;7.64;100.00
50310;BME280;36207;51.850;21.698;2024-02-23T09:10:25;98274.66;;;7.64;100.00
50310;BME280;36207;51.850;21.698;2024-02-23T09:12:51;98277.41;;;7.65;100.00
50310;BME280;36207;51.850;21.698;2024-02-23T09:15:17;98281.16;;;7.66;99.98
50310;BME280;36207;51.850;21.698;2024-02-23T09:17:43;98282.15;;;7.67;99.98
50310;BME280;36207;51.850;21.698;2024-02-23T09:20:10;98284.15;;;7.67;100.00
50310;BME280;36207;51.850;21.698;2024-02-23T09:22:36;98284.40;;;7.68;100.00
50310;BME280;36207;51.850;21.698;2024-02-23T09:25:03;98286.27;;;7.70;100.00
50310;BME280;36207;51.850;21.698;2024-02-23T09:27:31;98289.05;;;7.70;100.00
50310;BME280;36207;51.850;21.698;2024-02-23T09:29:57;98292.15;;;7.71;100.00
50310;BME280;36207;51.850;21.698;2024-02-23T09:32:24;98295.20;;;7.72;100.00
50310;BME280;36207;51.850;21.698;2024-02-23T09:34:50;98296.91;;;7.73;100.00
50310;BME280;36207;51.850;21.698;2024-02-23T09:37:16;98299.85;;;7.74;100.00
50310;BME280;36207;51.850;21.698;2024-02-23T09:39:42;98299.20;;;7.75;100.00
50310;BME280;36207;51.850;21.698;2024-02-23T09:42:10;98300.66;;;7.76;100.00
50310;BME280;36207;51.850;21.698;2024-02-23T09:44:41;98309.05;;;7.76;100.00
50310;BME280;36207;51.850;21.698;2024-02-23T09:47:08;98306.11;;;7.77;100.00
50310;BME280;36207;51.850;21.698;2024-02-23T09:49:38;98308.02;;;7.77;100.00
50310;BME280;36207;51.850;21.698;2024-02-23T09:52:07;98305.34;;;7.77;100.00
50310;BME280;36207;51.850;21.698;2024-02-23T09:54:34;98308.52;;;7.78;100.00
50310;BME280;36207;51.850;21.698;2024-02-23T09:57:02;98312.13;;;7.81;100.00
50310;BME280;36207;51.850;21.698;2024-02-23T09:59:32;98311.67;;;7.82;100.00
50310;BME280;36207;51.850;21.698;2024-02-23T10:01:59;98316.95;;;7.84;100.00
50310;BME280;36207;51.850;21.698;2024-02-23T10:04:27;98318.59;;;7.84;100.00
50310;BME280;36207;51.850;21.698;2024-02-23T10:06:56;98324.02;;;7.83;100.00
50310;BME280;36207;51.850;21.698;2024-02-23T10:09:22;98325.17;;;7.84;100.00
50310;BME280;36207;51.850;21.698;2024-02-23T10:11:54;98321.73;;;7.86;100.00
50310;BME280;36207;51.850;21.698;2024-02-23T10:14:21;98327.79;;;7.88;100.00
50310;BME280;36207;51.850;21.698;2024-02-23T10:16:47;98330.57;;;7.90;100.00
50310;BME280;36207;51.850;21.698;2024-02-23T10:19:14;98331.88;;;7.90;100.00
50310;BME280;36207;51.850;21.698;2024-02-23T10:21:40;98330.41;;;7.89;100.00
50310;BME280;36207;51.850;21.698;2024-02-23T10:24:06;98330.78;;;7.88;100.00
50310;BME280;36207;51.850;21.698;2024-02-23T10:26:32;98331.65;;;7.89;100.00
50310;BME280;36207;51.850;21.698;2024-02-23T10:28:58;98335.97;;;7.87;100.00
50310;BME280;36207;51.850;21.698;2024-02-23T10:31:24;98338.39;;;7.86;100.00
50310;BME280;36207;51.850;21.698;2024-02-23T10:33:51;98340.46;;;7.85;100.00
50310;BME280;36207;51.850;21.698;2024-02-23T10:36:18;98341.69;;;7.85;100.00
50310;BME280;36207;51.850;21.698;2024-02-23T10:38:45;98345.65;;;7.84;100.00
50310;BME280;36207;51.850;21.698;2024-02-23T10:41:17;98343.98;;;7.85;100.00
50310;BME280;36207;51.850;21.698;2024-02-23T10:43:45;98346.07;;;7.87;100.00
50310;BME280;36207;51.850;21.698;2024-02-23T10:46:12;98349.13;;;7.88;100.00
50310;BME280;36207;51.850;21.698;2024-02-23T10:48:42;98345.37;;;7.88;100.00
50310;BME280;36207;51.850;21.698;2024-02-23T10:51:10;98345.54;;;7.89;100.00
50310;BME280;36207;51.850;21.698;2024-02-23T10:53:39;98348.98;;;7.92;100.00
50310;BME280;36207;51.850;21.698;2024-02-23T10:56:07;98352.55;;;7.95;100.00
50310;BME280;36207;51.850;21.698;2024-02-23T10:58:33;98354.02;;;7.99;100.00
50310;BME280;36207;51.850;21.698;2024-02-23T11:01:01;98355.66;;;8.01;100.00
50310;BME280;36207;51.850;21.698;2024-02-23T11:03:30;98361.22;;;8.03;100.00
50310;BME280;36207;51.850;21.698;2024-02-23T11:05:57;98366.70;;;8.03;100.00
50310;BME280;36207;51.850;21.698;2024-02-23T11:08:23;98363.46;;;8.04;100.00
50310;BME280;36207;51.850;21.698;2024-02-23T11:10:50;98365.23;;;8.05;100.00
50310;BME280;36207;51.850;21.698;2024-02-23T11:13:18;98370.74;;;8.06;100.00
50310;BME280;36207;51.850;21.698;2024-02-23T11:15:44;98372.34;;;8.06;100.00
50310;BME280;36207;51.850;21.698;2024-02-23T11:18:42;98374.14;;;8.06;100.00
50310;BME280;36207;51.850;21.698;2024-02-23T11:21:11;98375.77;;;8.06;100.00
50310;BME280;36207;51.850;21.698;2024-02-23T11:23:45;98375.90;;;8.05;100.00
50310;BME280;36207;51.850;21.698;2024-02-23T11:26:12;98375.81;;;8.06;100.00
50310;BME280;36207;51.850;21.698;2024-02-23T11:28:48;98376.63;;;8.08;100.00
50310;BME280;36207;51.850;21.698;2024-02-23T11:31:19;98380.00;;;8.09;100.00
50310;BME280;36207;51.850;21.698;2024-02-23T11:33:55;98384.27;;;8.12;100.00
50310;BME280;36207;51.850;21.698;2024-02-23T11:36:34;98388.46;;;8.12;100.00
50310;BME280;36207;51.850;21.698;2024-02-23T11:39:02;98390.17;;;8.13;100.00
50310;BME280;36207;51.850;21.698;2024-02-23T11:41:29;98399.75;;;8.14;100.00
50310;BME280;36207;51.850;21.698;2024-02-23T11:43:55;98396.08;;;8.15;100.00
50310;BME280;36207;51.850;21.698;2024-02-23T11:46:22;98403.27;;;8.15;100.00
50310;BME280;36207;51.850;21.698;2024-02-23T11:48:48;98400.46;;;8.16;100.00
50310;BME280;36207;51.850;21.698;2024-02-23T11:51:21;98404.77;;;8.19;100.00
50310;BME280;36207;51.850;21.698;2024-02-23T11:53:49;98405.33;;;8.21;100.00
50310;BME280;36207;51.850;21.698;2024-02-23T11:56:15;98405.25;;;8.22;100.00
50310;BME280;36207;51.850;21.698;2024-02-23T11:58:42;98407.84;;;8.23;100.00
50310;BME280;36207;51.850;21.698;2024-02-23T12:01:08;98414.63;;;8.26;100.00
50310;BME280;36207;51.850;21.698;2024-02-23T12:03:34;98420.88;;;8.25;100.00
50310;BME280;36207;51.850;21.698;2024-02-23T12:06:01;98424.60;;;8.27;100.00
50310;BME280;36207;51.850;21.698;2024-02-23T12:08:30;98429.31;;;8.28;100.00
50310;BME280;36207;51.850;21.698;2024-02-23T12:10:57;98429.84;;;8.31;100.00
50310;BME280;36207;51.850;21.698;2024-02-23T12:13:26;98427.19;;;8.31;100.00
50310;BME280;36207;51.850;21.698;2024-02-23T12:15:53;98424.00;;;8.33;100.00
50310;BME280;36207;51.850;21.698;2024-02-23T12:18:22;98425.26;;;8.37;100.00
50310;BME280;36207;51.850;21.698;2024-02-23T12:21:04;98424.11;;;8.40;100.00
50310;BME280;36207;51.850;21.698;2024-02-23T12:23:44;98425.35;;;8.44;100.00
50310;BME280;36207;51.850;21.698;2024-02-23T12:26:13;98424.56;;;8.47;100.00
50310;BME280;36207;51.850;21.698;2024-02-23T12:28:40;98429.89;;;8.50;100.00
50310;BME280;36207;51.850;21.698;2024-02-23T12:31:06;98431.65;;;8.53;100.00
50310;BME280;36207;51.850;21.698;2024-02-23T12:33:37;98431.77;;;8.56;100.00
50310;BME280;36207;51.850;21.698;2024-02-23T12:36:04;98432.88;;;8.60;100.00
50310;BME280;36207;51.850;21.698;2024-02-23T12:38:31;98436.71;;;8.64;100.00
50310;BME280;36207;51.850;21.698;2024-02-23T12:40:57;98438.07;;;8.67;100.00
50310;BME280;36207;51.850;21.698;2024-02-23T12:43:24;98436.92;;;8.68;100.00
50310;BME280;36207;51.850;21.698;2024-02-23T12:45:52;98433.00;;;8.69;100.00
50310;BME280;36207;51.850;21.698;2024-02-23T12:48:18;98433.08;;;8.69;100.00
50310;BME280;36207;51.850;21.698;2024-02-23T12:50:46;98432.96;;;8.69;100.00
50310;BME280;36207;51.850;21.698;2024-02-23T12:53:35;98428.16;;;8.69;100.00
50310;BME280;36207;51.850;21.698;2024-02-23T12:58:35;98434.88;;;8.71;100.00